Time;durP1;ratioP1;P1;durP2;ratioP2;P2;SDS_P1;SDS_P2;PMS_P1;PMS_P2;Temp;Humidity;BMP_temperature;BMP_pressure;BME280_temperature;BME280_humidity;BME280_pressure;Samples;Min_cycle;Max_cycle;Signal;HPM_P1;HPM_P2
2024/04/04 00:00:14;;;;;;;0.40;0.20;;;12.80;99.90;;;;;;5137892;27;20435;-59
2024/04/04 00:02:44;;;;;;;0.50;0.20;;;12.70;99.90;;;;;;5138041;27;20494;-58
2024/04/04 00:05:12;;;;;;;0.30;0.17;;;12.70;99.90;;;;;;5138878;27;20454;-58
2024/04/04 00:07:38;;;;;;;0.73;0.10;;;12.70;99.90;;;;;;5139403;27;20719;-59
2024/04/04 00:10:07;;;;;;;0.60;0.20;;;12.70;99.90;;;;;;5139733;27;20490;-57
2024/04/04 00:12:33;;;;;;;0.40;0.20;;;12.70;99.90;;;;;;5140502;27;20508;-57
2024/04/04 00:15:01;;;;;;;0.30;0.10;;;12.70;99.90;;;;;;5139427;27;20815;-57
2024/04/04 00:17:27;;;;;;;0.30;0.17;;;12.80;99.90;;;;;;5138841;27;20455;-56
2024/04/04 00:19:55;;;;;;;0.30;0.10;;;12.80;99.90;;;;;;5138907;27;20500;-58
2024/04/04 00:22:21;;;;;;;0.30;0.20;;;12.80;99.90;;;;;;5139513;27;20486;-58
2024/04/04 00:24:48;;;;;;;0.30;0.10;;;12.80;99.90;;;;;;5139733;27;20441;-58
2024/04/04 00:27:14;;;;;;;0.50;0.20;;;12.80;99.90;;;;;;5139694;27;20696;-59
2024/04/04 00:29:41;;;;;;;0.30;0.10;;;12.80;99.90;;;;;;5139921;27;20455;-58
2024/04/04 00:32:09;;;;;;;0.30;0.20;;;12.80;99.90;;;;;;5139670;27;20450;-58
2024/04/04 00:34:36;;;;;;;0.40;0.10;;;12.90;99.90;;;;;;5139395;27;20462;-58
2024/04/04 00:37:02;;;;;;;0.90;0.10;;;12.90;99.90;;;;;;5138785;27;20491;-59
2024/04/04 00:39:29;;;;;;;0.37;0.20;;;12.80;99.90;;;;;;5139632;27;20459;-59
2024/04/04 00:41:55;;;;;;;4.27;0.30;;;12.80;99.90;;;;;;5139225;27;20512;-59
2024/04/04 00:44:22;;;;;;;0.30;0.10;;;12.70;99.90;;;;;;5139569;27;20463;-59
2024/04/04 00:46:48;;;;;;;0.30;0.10;;;12.70;99.90;;;;;;5138528;27;20436;-59
2024/04/04 00:49:16;;;;;;;0.30;0.10;;;12.60;99.90;;;;;;5139097;27;20435;-59
2024/04/04 00:51:42;;;;;;;0.60;0.20;;;12.60;99.90;;;;;;5139249;27;20461;-59
2024/04/04 00:54:09;;;;;;;0.60;0.20;;;12.60;99.90;;;;;;5138563;27;20447;-58
2024/04/04 00:56:36;;;;;;;0.33;0.10;;;12.60;99.90;;;;;;5138705;27;20456;-59
2024/04/04 00:59:05;;;;;;;0.30;0.10;;;12.70;99.90;;;;;;5139362;27;20443;-57
2024/04/04 01:01:31;;;;;;;0.30;0.10;;;12.60;99.90;;;;;;5139066;27;20458;-59
2024/04/04 01:03:58;;;;;;;0.37;0.10;;;12.60;99.90;;;;;;5139094;27;20475;-59
2024/04/04 01:06:30;;;;;;;0.30;0.10;;;12.50;99.90;;;;;;5138458;27;20485;-58
2024/04/04 01:09:00;;;;;;;0.40;0.20;;;12.40;99.90;;;;;;5138834;27;20674;-58
2024/04/04 01:11:26;;;;;;;3.50;0.23;;;12.50;99.90;;;;;;5138708;27;20451;-58
2024/04/04 01:13:53;;;;;;;0.87;0.20;;;12.50;99.90;;;;;;5139034;27;20483;-58
2024/04/04 01:16:19;;;;;;;1.27;0.20;;;12.50;99.90;;;;;;5138670;27;20499;-58
2024/04/04 01:18:46;;;;;;;0.30;0.20;;;12.60;99.90;;;;;;5139073;27;20443;-59
2024/04/04 01:21:12;;;;;;;0.30;0.10;;;12.60;99.90;;;;;;5123541;27;20455;-59
2024/04/04 01:23:41;;;;;;;0.20;0.20;;;12.60;99.90;;;;;;5127171;27;20897;-59
2024/04/04 01:26:07;;;;;;;0.40;0.20;;;12.50;99.90;;;;;;5135215;27;20470;-58
2024/04/04 01:28:34;;;;;;;0.50;0.20;;;12.50;99.90;;;;;;5133389;27;20533;-58
2024/04/04 01:31:00;;;;;;;0.30;0.10;;;12.40;99.90;;;;;;5117892;28;20497;-59
2024/04/04 01:33:27;;;;;;;0.30;0.20;;;12.30;99.90;;;;;;5118370;28;20866;-58
2024/04/04 01:35:55;;;;;;;0.43;0.20;;;12.20;99.90;;;;;;5117363;28;20471;-59
2024/04/04 01:38:22;;;;;;;0.67;0.20;;;12.10;99.90;;;;;;5118119;28;20470;-59
2024/04/04 01:40:50;;;;;;;0.40;0.20;;;12.10;99.90;;;;;;5117454;28;20565;-59
2024/04/04 01:43:17;;;;;;;0.53;0.20;;;12.10;99.90;;;;;;5118016;28;20488;-59
2024/04/04 01:45:43;;;;;;;0.40;0.10;;;12.10;99.90;;;;;;5117305;28;20455;-59
2024/04/04 01:48:10;;;;;;;0.43;0.10;;;12.10;99.90;;;;;;5116431;28;20452;-59
2024/04/04 01:50:36;;;;;;;0.40;0.10;;;12.10;99.90;;;;;;5116689;28;20460;-59
2024/04/04 01:53:03;;;;;;;0.40;0.17;;;12.10;99.90;;;;;;5117550;28;20440;-59
2024/04/04 01:55:30;;;;;;;0.30;0.20;;;12.10;99.90;;;;;;5116544;28;20440;-58
2024/04/04 01:57:58;;;;;;;0.30;0.10;;;12.10;99.90;;;;;;5116587;28;20517;-59
2024/04/04 02:00:26;;;;;;;0.30;0.10;;;12.20;99.90;;;;;;5117062;28;20522;-58
2024/04/04 02:02:53;;;;;;;0.77;0.10;;;12.20;99.90;;;;;;5116545;28;20512;-58
2024/04/04 02:05:19;;;;;;;0.40;0.10;;;12.30;99.90;;;;;;5123663;27;20444;-58
2024/04/04 02:07:47;;;;;;;0.30;0.10;;;12.30;99.90;;;;;;5119414;27;20912;-59
2024/04/04 02:10:13;;;;;;;0.30;0.10;;;12.30;99.90;;;;;;5126693;27;20463;-59
2024/04/04 02:12:41;;;;;;;2.50;0.10;;;12.30;99.90;;;;;;5138002;27;20440;-59
2024/04/04 02:15:10;;;;;;;0.83;0.10;;;12.30;99.90;;;;;;5137525;27;20451;-58
2024/04/04 02:17:37;;;;;;;0.27;0.10;;;12.40;99.90;;;;;;5138330;27;20697;-59
2024/04/04 02:20:05;;;;;;;0.40;0.10;;;12.30;99.90;;;;;;5137036;27;20492;-59
2024/04/04 02:22:32;;;;;;;0.30;0.10;;;12.30;99.90;;;;;;5137147;27;20741;-58
2024/04/04 02:24:58;;;;;;;1.77;0.10;;;12.30;99.90;;;;;;5137193;27;20504;-58
2024/04/04 02:27:25;;;;;;;0.90;0.10;;;12.30;99.90;;;;;;5137513;27;20759;-58
2024/04/04 02:29:51;;;;;;;0.40;0.10;;;12.40;99.90;;;;;;5137491;27;20458;-58
2024/04/04 02:32:20;;;;;;;0.40;0.20;;;12.30;99.90;;;;;;5137409;27;20455;-57
2024/04/04 02:34:46;;;;;;;0.57;0.10;;;12.20;99.90;;;;;;5136668;27;20451;-58
2024/04/04 02:37:13;;;;;;;0.30;0.10;;;12.20;99.90;;;;;;5137255;27;20451;-58
2024/04/04 02:39:39;;;;;;;0.87;0.10;;;12.10;99.90;;;;;;5137288;27;20478;-58
2024/04/04 02:42:06;;;;;;;0.30;0.10;;;12.10;99.90;;;;;;5137641;27;20451;-58
2024/04/04 02:44:34;;;;;;;2.10;0.30;;;12.20;99.90;;;;;;5136012;27;20443;-58
2024/04/04 02:47:01;;;;;;;0.30;0.10;;;12.10;99.90;;;;;;5135377;27;20447;-58
2024/04/04 02:49:28;;;;;;;3.50;0.20;;;12.10;99.90;;;;;;5136189;27;20460;-58
2024/04/04 02:51:55;;;;;;;0.33;0.10;;;12.10;99.90;;;;;;5136140;27;20455;-58
2024/04/04 02:54:21;;;;;;;0.40;0.10;;;12.10;99.90;;;;;;5136354;27;20468;-58
2024/04/04 02:56:48;;;;;;;1.73;0.20;;;12.10;99.90;;;;;;5136511;27;20730;-58
2024/04/04 02:59:14;;;;;;;0.30;0.20;;;12.10;99.90;;;;;;5136840;27;20720;-58
2024/04/04 03:01:42;;;;;;;0.30;0.17;;;12.20;99.90;;;;;;5137785;27;20444;-59
2024/04/04 03:04:09;;;;;;;0.50;0.20;;;12.20;99.90;;;;;;5137212;28;20518;-58
2024/04/04 03:06:37;;;;;;;1.00;0.10;;;12.20;99.90;;;;;;5137427;28;20516;-58
2024/04/04 03:09:06;;;;;;;0.33;0.10;;;12.20;99.90;;;;;;5137111;28;20448;-58
2024/04/04 03:11:34;;;;;;;0.30;0.10;;;12.10;99.90;;;;;;5137848;28;20456;-59
2024/04/04 03:14:00;;;;;;;0.40;0.20;;;12.20;99.90;;;;;;5136866;28;20436;-59
2024/04/04 03:16:27;;;;;;;0.30;0.10;;;12.20;99.90;;;;;;5136831;28;20737;-60
2024/04/04 03:18:53;;;;;;;0.40;0.20;;;12.20;99.90;;;;;;5136835;28;20466;-57
2024/04/04 03:21:20;;;;;;;0.30;0.17;;;12.10;99.90;;;;;;5120684;28;20866;-59
2024/04/04 03:23:48;;;;;;;0.20;0.10;;;12.20;99.90;;;;;;5116253;28;20947;-60
2024/04/04 03:26:15;;;;;;;0.40;0.13;;;12.10;99.90;;;;;;5116240;28;20475;-59
2024/04/04 03:28:41;;;;;;;0.30;0.20;;;12.10;99.90;;;;;;5115652;28;20520;-59
2024/04/04 03:31:08;;;;;;;0.33;0.17;;;12.00;99.90;;;;;;5114672;28;20452;-58
2024/04/04 03:33:34;;;;;;;0.33;0.10;;;12.00;99.90;;;;;;5115275;28;20444;-58
2024/04/04 03:36:04;;;;;;;0.50;0.10;;;12.00;99.90;;;;;;5114909;28;20456;-60
2024/04/04 03:38:31;;;;;;;2.00;0.20;;;11.90;99.90;;;;;;5115973;28;20440;-59
2024/04/04 03:40:59;;;;;;;1.17;0.10;;;11.90;99.90;;;;;;5114786;28;20441;-59
2024/04/04 03:43:26;;;;;;;0.30;0.10;;;11.90;99.90;;;;;;5125448;28;20479;-59
2024/04/04 03:45:52;;;;;;;0.30;0.10;;;11.90;99.90;;;;;;5136923;28;20455;-59
2024/04/04 03:48:20;;;;;;;0.20;0.10;;;12.00;99.90;;;;;;5136931;28;20448;-59
2024/04/04 03:50:46;;;;;;;0.30;0.20;;;12.00;99.90;;;;;;5134278;28;20443;-59
2024/04/04 03:53:14;;;;;;;0.30;0.10;;;11.90;99.90;;;;;;5134672;28;20440;-59
2024/04/04 03:55:41;;;;;;;0.30;0.10;;;11.80;99.90;;;;;;5133955;28;20550;-59
2024/04/04 03:58:10;;;;;;;0.30;0.10;;;11.80;99.90;;;;;;5134648;28;20525;-60
2024/04/04 04:00:36;;;;;;;0.53;0.20;;;11.70;99.90;;;;;;5134609;28;20466;-59
2024/04/04 04:03:04;;;;;;;0.40;0.10;;;11.70;99.90;;;;;;5135309;28;20471;-59
2024/04/04 04:05:30;;;;;;;0.40;0.20;;;11.70;99.90;;;;;;5135575;28;20452;-57
2024/04/04 04:07:57;;;;;;;0.27;0.13;;;11.80;99.90;;;;;;5116572;28;20756;-59
2024/04/04 04:10:27;;;;;;;0.30;0.20;;;11.70;99.90;;;;;;5127579;27;20467;-57
2024/04/04 04:12:55;;;;;;;0.50;0.20;;;11.70;99.90;;;;;;5140133;27;20447;-58
2024/04/04 04:15:23;;;;;;;0.30;0.10;;;11.70;99.90;;;;;;5139911;27;20555;-59
2024/04/04 04:17:50;;;;;;;0.47;0.20;;;11.80;99.90;;;;;;5140937;27;20883;-59
2024/04/04 04:22:58;;;;;;;0.30;0.20;;;11.80;99.90;;;;;;5093551;27;20872;-63
2024/04/04 04:25:25;;;;;;;0.40;0.10;;;11.80;99.90;;;;;;5136513;27;20734;-59
2024/04/04 04:27:51;;;;;;;0.40;0.10;;;11.80;99.90;;;;;;5137378;27;20455;-58
2024/04/04 04:30:18;;;;;;;0.40;0.20;;;11.80;99.90;;;;;;5136628;27;20458;-59
2024/04/04 04:32:45;;;;;;;0.30;0.10;;;11.80;99.90;;;;;;5135582;27;20467;-59
2024/04/04 04:35:12;;;;;;;0.40;0.10;;;11.80;99.90;;;;;;5136495;27;20462;-59
2024/04/04 04:37:38;;;;;;;0.90;0.20;;;11.80;99.90;;;;;;5136905;27;20447;-59
2024/04/04 04:40:06;;;;;;;0.30;0.10;;;11.80;99.90;;;;;;5139170;27;20904;-59
2024/04/04 04:42:32;;;;;;;0.30;0.10;;;11.70;99.90;;;;;;5137631;27;20455;-58
2024/04/04 04:44:59;;;;;;;0.30;0.10;;;11.60;99.90;;;;;;5137410;27;20458;-59
2024/04/04 04:47:25;;;;;;;0.30;0.10;;;11.60;99.90;;;;;;5138344;27;20451;-59
2024/04/04 04:49:54;;;;;;;0.30;0.10;;;11.60;99.90;;;;;;5138633;27;20443;-59
2024/04/04 04:52:20;;;;;;;0.43;0.10;;;11.60;99.90;;;;;;5138025;27;20504;-60
2024/04/04 04:54:47;;;;;;;0.97;0.10;;;11.60;99.90;;;;;;5138130;27;20451;-59
2024/04/04 04:57:13;;;;;;;0.40;0.10;;;11.60;99.90;;;;;;5136892;27;20516;-59
2024/04/04 04:59:40;;;;;;;0.30;0.20;;;11.60;99.90;;;;;;5137671;27;20490;-59
2024/04/04 05:02:07;;;;;;;0.40;0.10;;;11.60;99.90;;;;;;5137676;27;20512;-59
2024/04/04 05:04:33;;;;;;;0.50;0.20;;;11.60;99.90;;;;;;5138227;27;20479;-59
2024/04/04 05:07:02;;;;;;;0.40;0.10;;;11.60;99.90;;;;;;5138254;27;20508;-59
2024/04/04 05:09:28;;;;;;;0.37;0.10;;;11.50;99.90;;;;;;5138112;27;20481;-59
2024/04/04 05:11:55;;;;;;;0.40;0.20;;;11.50;99.90;;;;;;5137393;27;20508;-58
2024/04/04 05:14:21;;;;;;;0.50;0.20;;;11.40;99.90;;;;;;5137961;27;21327;-59
2024/04/04 05:16:49;;;;;;;0.30;0.10;;;11.40;99.90;;;;;;5136618;27;20484;-58
2024/04/04 05:19:15;;;;;;;1.67;0.20;;;11.50;99.90;;;;;;5135359;27;20440;-58
2024/04/04 05:21:42;;;;;;;0.30;0.20;;;11.50;99.90;;;;;;5136893;27;20542;-58
2024/04/04 05:24:09;;;;;;;0.30;0.20;;;11.60;99.90;;;;;;5121869;27;20482;-59
2024/04/04 05:26:36;;;;;;;0.30;0.10;;;11.60;99.90;;;;;;5127811;27;20456;-59
2024/04/04 05:29:02;;;;;;;6.20;0.20;;;11.70;99.90;;;;;;5128836;27;20436;-58
2024/04/04 05:31:29;;;;;;;0.50;0.10;;;11.70;99.90;;;;;;5121268;27;20486;-59
2024/04/04 05:33:55;;;;;;;0.40;0.10;;;11.70;99.90;;;;;;5128935;27;20432;-59
2024/04/04 05:36:23;;;;;;;0.93;0.20;;;11.70;99.90;;;;;;5130272;27;20881;-59
2024/04/04 05:38:49;;;;;;;0.20;0.10;;;11.70;99.90;;;;;;5119917;27;20436;-59
2024/04/04 05:41:17;;;;;;;0.30;0.10;;;11.70;99.90;;;;;;5136613;27;20458;-59
2024/04/04 05:43:43;;;;;;;0.40;0.17;;;11.70;99.90;;;;;;5136320;27;20471;-57
2024/04/04 05:46:10;;;;;;;0.30;0.10;;;11.80;99.90;;;;;;5137293;27;20876;-58
2024/04/04 05:48:36;;;;;;;0.23;0.10;;;11.70;99.90;;;;;;5136638;27;20447;-59
2024/04/04 05:51:04;;;;;;;0.30;0.10;;;11.80;99.90;;;;;;5135125;27;20654;-59
2024/04/04 05:53:30;;;;;;;0.40;0.20;;;11.90;99.90;;;;;;5135856;27;20550;-59
2024/04/04 05:55:58;;;;;;;0.30;0.10;;;11.80;99.90;;;;;;5136066;27;20801;-59
2024/04/04 05:58:25;;;;;;;0.60;0.17;;;11.80;99.90;;;;;;5136546;27;20442;-60
2024/04/04 06:00:52;;;;;;;0.67;0.20;;;11.90;99.90;;;;;;5136277;27;20572;-60
2024/04/04 06:03:18;;;;;;;1.17;0.23;;;12.00;99.90;;;;;;5135553;27;20487;-56
2024/04/04 06:05:45;;;;;;;0.93;0.20;;;12.00;99.90;;;;;;5133399;27;20711;-57
2024/04/04 06:08:11;;;;;;;0.80;0.20;;;12.10;99.90;;;;;;5131146;27;20440;-54
2024/04/04 06:10:38;;;;;;;3.03;0.30;;;12.20;99.90;;;;;;5131942;27;20896;-57
2024/04/04 06:13:04;;;;;;;0.50;0.10;;;12.40;99.90;;;;;;5129782;27;20891;-58
2024/04/04 06:15:33;;;;;;;0.33;0.10;;;12.60;99.90;;;;;;5135594;27;20845;-56
2024/04/04 06:17:59;;;;;;;0.33;0.17;;;12.60;99.90;;;;;;5135879;27;20447;-58
2024/04/04 06:20:26;;;;;;;0.40;0.20;;;12.60;99.90;;;;;;5135474;27;20452;-56
2024/04/04 06:22:52;;;;;;;0.30;0.10;;;12.70;99.90;;;;;;5135911;27;20436;-58
2024/04/04 06:25:19;;;;;;;0.50;0.10;;;12.70;99.90;;;;;;5131512;27;20497;-58
2024/04/04 06:27:46;;;;;;;0.40;0.10;;;12.70;99.90;;;;;;5114865;27;20551;-57
2024/04/04 06:30:13;;;;;;;0.40;0.10;;;12.80;99.90;;;;;;5134981;27;20483;-56
2024/04/04 06:32:46;;;;;;;1.67;0.20;;;12.80;99.90;;;;;;5133748;27;20455;-56
2024/04/04 06:35:13;;;;;;;0.50;0.20;;;12.90;99.90;;;;;;5134764;27;20440;-58
2024/04/04 06:37:39;;;;;;;0.30;0.13;;;13.00;99.90;;;;;;5135463;27;20435;-56
2024/04/04 06:40:07;;;;;;;0.20;0.10;;;13.10;99.90;;;;;;5134326;27;20521;-56
2024/04/04 06:42:33;;;;;;;2.10;0.10;;;13.30;99.90;;;;;;5133713;27;20516;-58
2024/04/04 06:45:00;;;;;;;0.60;0.20;;;13.30;99.90;;;;;;5131934;27;20706;-56
2024/04/04 06:47:26;;;;;;;0.40;0.20;;;13.20;99.90;;;;;;5129529;27;20472;-56
2024/04/04 06:49:54;;;;;;;1.63;0.20;;;13.20;99.90;;;;;;5125345;27;20451;-58
2024/04/04 06:52:20;;;;;;;0.93;0.10;;;13.20;99.90;;;;;;5128190;27;20460;-57
2024/04/04 06:54:48;;;;;;;0.43;0.20;;;13.20;99.90;;;;;;5131793;27;20462;-59
2024/04/04 06:57:14;;;;;;;0.90;0.20;;;13.20;99.90;;;;;;5129580;27;20518;-57
2024/04/04 06:59:41;;;;;;;3.50;0.33;;;13.30;99.90;;;;;;5132528;27;20455;-58
2024/04/04 07:02:07;;;;;;;1.27;0.20;;;13.30;99.90;;;;;;5133833;27;20450;-57
2024/04/04 07:04:34;;;;;;;0.80;0.30;;;13.30;99.90;;;;;;5135179;28;20475;-57
2024/04/04 07:07:01;;;;;;;0.90;0.20;;;13.50;99.90;;;;;;5133722;28;20452;-58
2024/04/04 07:09:28;;;;;;;1.43;0.20;;;13.60;99.90;;;;;;5132432;28;20482;-58
2024/04/04 07:11:54;;;;;;;0.60;0.30;;;13.80;99.90;;;;;;5132916;28;20440;-57
2024/04/04 07:14:22;;;;;;;1.40;0.33;;;14.10;99.90;;;;;;5133309;28;20562;-59
2024/04/04 07:16:48;;;;;;;0.50;0.20;;;14.30;99.90;;;;;;5134352;28;20475;-58
2024/04/04 07:19:15;;;;;;;0.50;0.20;;;14.40;99.90;;;;;;5134218;28;20468;-59
2024/04/04 07:21:40;;;;;;;0.77;0.20;;;14.70;99.90;;;;;;5134165;28;20479;-60
2024/04/04 07:24:11;;;;;;;0.40;0.10;;;14.80;99.90;;;;;;5130315;27;20475;-58
2024/04/04 07:26:37;;;;;;;1.53;0.23;;;14.80;99.90;;;;;;5121983;28;20521;-59
2024/04/04 07:29:04;;;;;;;4.10;0.30;;;14.80;99.90;;;;;;5121364;27;20460;-58
2024/04/04 07:31:30;;;;;;;0.40;0.10;;;14.70;99.90;;;;;;5130613;28;20446;-58
2024/04/04 07:33:58;;;;;;;0.97;0.27;;;14.60;99.90;;;;;;5127383;27;20458;-58
2024/04/04 07:36:24;;;;;;;0.30;0.10;;;14.60;99.90;;;;;;5133592;28;20504;-58
2024/04/04 07:38:51;;;;;;;0.40;0.20;;;14.50;99.90;;;;;;5133997;28;20444;-57
2024/04/04 07:41:18;;;;;;;0.30;0.10;;;14.50;99.90;;;;;;5133701;28;20447;-59
2024/04/04 07:43:47;;;;;;;0.80;0.20;;;14.60;99.90;;;;;;5133820;28;20451;-59
2024/04/04 07:46:13;;;;;;;2.60;0.20;;;14.50;99.90;;;;;;5134482;27;20539;-58
2024/04/04 07:48:42;;;;;;;0.50;0.10;;;14.40;99.90;;;;;;5137768;27;20502;-58
2024/04/04 07:51:09;;;;;;;0.93;0.23;;;14.30;99.90;;;;;;5135743;27;20443;-58
2024/04/04 07:53:36;;;;;;;0.50;0.20;;;14.40;99.90;;;;;;5128663;27;20444;-57
2024/04/04 07:56:02;;;;;;;0.83;0.20;;;14.30;99.90;;;;;;5115164;28;20874;-58
2024/04/04 07:58:31;;;;;;;1.13;0.17;;;14.30;99.90;;;;;;5114791;28;20732;-56
2024/04/04 08:00:57;;;;;;;3.40;0.20;;;14.30;99.90;;;;;;5116026;28;20464;-58
2024/04/04 08:03:24;;;;;;;1.10;0.20;;;14.30;99.90;;;;;;5117231;28;20541;-57
2024/04/04 08:05:55;;;;;;;1.70;0.20;;;14.30;99.90;;;;;;5117797;28;20459;-57
2024/04/04 08:08:23;;;;;;;1.50;0.30;;;14.30;99.90;;;;;;5117542;28;20452;-58
2024/04/04 08:10:49;;;;;;;0.50;0.20;;;14.30;99.90;;;;;;5115778;28;20479;-58
2024/04/04 08:13:16;;;;;;;0.60;0.20;;;14.30;99.90;;;;;;5120728;27;20472;-58
2024/04/04 08:15:48;;;;;;;0.67;0.20;;;14.40;99.90;;;;;;5119254;27;20475;-59
2024/04/04 08:18:15;;;;;;;2.20;0.20;;;14.30;99.90;;;;;;5123277;27;20456;-59
2024/04/04 08:20:44;;;;;;;1.15;0.30;;;14.20;99.90;;;;;;5125979;27;20509;-59
2024/04/04 08:23:12;;;;;;;0.70;0.38;;;14.20;99.90;;;;;;5128889;27;20395;-59
2024/04/04 08:25:38;;;;;;;0.50;0.20;;;14.20;99.90;;;;;;5124455;27;20525;-57
2024/04/04 08:28:05;;;;;;;1.07;0.20;;;14.20;99.90;;;;;;5126367;27;20502;-59
2024/04/04 08:30:32;;;;;;;0.50;0.20;;;14.30;99.90;;;;;;5121073;27;20459;-59
2024/04/04 08:33:00;;;;;;;0.90;0.20;;;14.20;99.90;;;;;;5124432;27;20440;-59
2024/04/04 08:35:27;;;;;;;2.03;0.23;;;14.10;99.90;;;;;;5116710;27;20448;-59
2024/04/04 08:37:54;;;;;;;2.00;0.20;;;14.20;99.90;;;;;;5118900;27;20456;-58
2024/04/04 08:40:20;;;;;;;0.40;0.10;;;14.20;99.90;;;;;;5136270;27;20492;-58
2024/04/04 08:42:47;;;;;;;0.50;0.20;;;14.10;99.90;;;;;;5125941;27;20455;-59
2024/04/04 08:45:15;;;;;;;0.40;0.10;;;14.20;99.90;;;;;;5134501;27;20513;-59
2024/04/04 08:47:44;;;;;;;0.80;0.20;;;14.20;99.90;;;;;;5134274;27;20452;-58
2024/04/04 08:50:14;;;;;;;0.37;0.10;;;14.20;99.90;;;;;;5134222;27;20849;-58
2024/04/04 08:52:40;;;;;;;3.27;0.20;;;14.30;99.90;;;;;;5135748;27;20551;-58
2024/04/04 08:55:06;;;;;;;1.57;0.20;;;14.30;99.90;;;;;;5134421;27;20652;-58
2024/04/04 08:57:36;;;;;;;0.37;0.20;;;14.40;99.90;;;;;;5133901;27;20528;-58
2024/04/04 09:00:05;;;;;;;2.10;0.20;;;14.30;99.90;;;;;;5133688;27;20447;-58
2024/04/04 09:02:32;;;;;;;0.70;0.23;;;14.30;99.90;;;;;;5134359;27;20483;-58
2024/04/04 09:05:03;;;;;;;0.50;0.10;;;14.40;99.90;;;;;;5125073;27;20921;-58
2024/04/04 09:07:34;;;;;;;0.40;0.20;;;14.40;99.90;;;;;;5114098;28;20588;-59
2024/04/04 09:10:00;;;;;;;0.50;0.28;;;14.40;99.90;;;;;;5123795;27;20448;-57
2024/04/04 09:12:27;;;;;;;1.33;0.50;;;14.50;99.90;;;;;;5117062;27;20564;-56
2024/04/04 09:14:57;;;;;;;0.40;0.20;;;14.60;99.90;;;;;;5118244;27;20439;-58
2024/04/04 09:17:26;;;;;;;1.40;0.20;;;14.70;99.90;;;;;;5130625;27;20757;-57
2024/04/04 09:19:53;;;;;;;0.40;0.20;;;14.60;99.90;;;;;;5125885;27;20523;-57
2024/04/04 09:22:21;;;;;;;0.90;0.30;;;14.60;99.90;;;;;;5135682;27;20455;-58
2024/04/04 09:24:48;;;;;;;1.00;0.20;;;14.60;99.90;;;;;;5136134;27;20491;-57
2024/04/04 09:27:19;;;;;;;0.60;0.30;;;14.70;99.90;;;;;;5131895;27;20855;-57
2024/04/04 09:29:46;;;;;;;0.47;0.27;;;14.80;99.90;;;;;;5118812;27;20454;-57
2024/04/04 09:32:14;;;;;;;1.27;0.30;;;14.90;99.90;;;;;;5114391;27;20877;-54
2024/04/04 09:34:42;;;;;;;0.50;0.13;;;15.00;99.90;;;;;;5128768;27;20435;-57
2024/04/04 09:37:13;;;;;;;0.43;0.20;;;15.00;99.90;;;;;;5135200;27;20443;-57
2024/04/04 09:39:40;;;;;;;0.67;0.20;;;14.80;99.90;;;;;;5131375;27;20540;-57
2024/04/04 09:42:09;;;;;;;1.73;0.20;;;14.80;99.90;;;;;;5122218;27;20552;-56
2024/04/04 09:44:35;;;;;;;1.53;0.30;;;14.80;99.90;;;;;;5126042;27;20472;-55
2024/04/04 09:47:04;;;;;;;0.70;0.23;;;14.90;99.90;;;;;;5120479;27;20433;-54
2024/04/04 09:49:31;;;;;;;0.47;0.20;;;15.10;99.90;;;;;;5117913;27;20529;-54
2024/04/04 09:52:00;;;;;;;0.40;0.20;;;15.10;99.90;;;;;;5125550;27;20513;-61
2024/04/04 09:54:28;;;;;;;1.93;0.20;;;15.10;99.90;;;;;;5136474;27;20772;-61
2024/04/04 09:56:57;;;;;;;0.30;0.10;;;15.10;99.90;;;;;;5118273;27;20454;-61
2024/04/04 09:59:26;;;;;;;0.60;0.20;;;15.00;99.90;;;;;;5135020;27;20452;-60
2024/04/04 10:01:53;;;;;;;2.43;0.20;;;15.10;99.90;;;;;;5133392;27;20463;-60
2024/04/04 10:04:19;;;;;;;0.57;0.27;;;15.00;99.90;;;;;;5134044;27;20482;-60
2024/04/04 10:06:48;;;;;;;0.83;0.10;;;14.90;99.90;;;;;;5121104;27;20444;-59
2024/04/04 10:09:15;;;;;;;2.20;0.20;;;15.00;99.90;;;;;;5117606;27;20489;-59
2024/04/04 10:11:43;;;;;;;1.10;0.20;;;14.80;99.90;;;;;;5130690;27;20510;-59
2024/04/04 10:14:19;;;;;;;0.70;0.17;;;14.80;99.90;;;;;;5134018;27;20524;-58
2024/04/04 10:16:52;;;;;;;0.37;0.20;;;14.60;99.90;;;;;;5135200;27;20515;-58
2024/04/04 10:19:20;;;;;;;0.73;0.30;;;14.60;1.00;;;;;;5133276;27;20514;-58
2024/04/04 10:21:47;;;;;;;1.03;0.20;;;14.60;1.00;;;;;;5133085;27;20496;-58
2024/04/04 10:24:20;;;;;;;0.67;0.30;;;14.90;99.90;;;;;;5134560;27;20479;-58
2024/04/04 10:26:54;;;;;;;0.60;0.20;;;14.80;1.00;;;;;;5134823;27;20782;-58
2024/04/04 10:29:20;;;;;;;0.40;0.10;;;14.80;1.00;;;;;;5134380;27;20455;-59
2024/04/04 10:31:49;;;;;;;1.23;0.20;;;14.80;1.00;;;;;;5134380;27;20490;-58
2024/04/04 10:34:18;;;;;;;0.30;0.10;;;14.80;1.00;;;;;;5133285;27;20436;-58
2024/04/04 10:36:46;;;;;;;0.30;0.10;;;14.70;1.00;;;;;;5134080;27;20622;-57
2024/04/04 10:39:14;;;;;;;0.30;0.20;;;14.50;1.00;;;;;;5133699;27;20512;-58
2024/04/04 10:41:42;;;;;;;0.50;0.20;;;14.40;1.00;;;;;;5132436;27;20460;-58
2024/04/04 10:44:11;;;;;;;2.00;0.20;;;14.40;1.00;;;;;;5132265;27;20776;-59
2024/04/04 10:46:43;;;;;;;0.30;0.10;;;14.50;1.00;;;;;;5134573;27;20864;-58
2024/04/04 10:49:13;;;;;;;0.73;0.20;;;14.70;1.00;;;;;;5131966;27;20856;-58
2024/04/04 10:51:49;;;;;;;0.40;0.10;;;14.90;99.90;;;;;;5119454;27;20897;-58
2024/04/04 10:54:16;;;;;;;0.40;0.20;;;15.00;99.90;;;;;;5131248;27;20463;-58
2024/04/04 10:56:47;;;;;;;0.40;0.20;;;15.30;99.90;;;;;;5129195;27;20436;-59
2024/04/04 10:59:15;;;;;;;0.50;0.20;;;15.20;99.90;;;;;;5133418;27;20444;-59
2024/04/04 11:01:45;;;;;;;0.50;0.20;;;15.10;99.90;;;;;;5121868;27;20794;-58
2024/04/04 11:04:13;;;;;;;1.73;0.30;;;15.00;99.90;;;;;;5121682;27;20552;-59
2024/04/04 11:06:41;;;;;;;0.40;0.20;;;15.00;99.90;;;;;;5115009;28;20897;-56
2024/04/04 11:09:10;;;;;;;0.40;0.20;;;14.80;99.90;;;;;;5122661;28;20502;-59
2024/04/04 11:11:39;;;;;;;0.50;0.30;;;14.90;1.00;;;;;;5132260;28;20466;-59
2024/04/04 11:14:05;;;;;;;0.40;0.20;;;15.00;99.90;;;;;;5134400;28;20439;-59
2024/04/04 11:16:33;;;;;;;0.70;0.20;;;15.00;99.90;;;;;;5134404;28;20447;-58
2024/04/04 11:18:59;;;;;;;0.57;0.20;;;15.00;99.90;;;;;;5132960;27;20743;-62
2024/04/04 11:21:28;;;;;;;2.10;0.20;;;15.10;99.90;;;;;;5125848;27;20494;-60
2024/04/04 11:23:54;;;;;;;0.80;0.20;;;15.20;99.90;;;;;;5134734;27;20869;-60
2024/04/04 11:26:24;;;;;;;0.73;0.20;;;15.30;99.90;;;;;;5130676;27;20489;-60
2024/04/04 11:28:50;;;;;;;0.47;0.20;;;15.50;99.90;;;;;;5135058;27;20446;-60
2024/04/04 11:31:21;;;;;;;1.63;0.20;;;15.60;99.90;;;;;;5135273;27;20448;-61
2024/04/04 11:33:47;;;;;;;0.97;0.20;;;15.70;99.90;;;;;;5136495;27;20522;-60
2024/04/04 11:36:14;;;;;;;0.77;0.27;;;15.70;99.90;;;;;;5136805;27;20492;-58
2024/04/04 11:38:42;;;;;;;0.50;0.20;;;15.70;99.90;;;;;;5136260;27;20439;-58
2024/04/04 11:41:09;;;;;;;1.20;0.20;;;15.70;1.00;;;;;;5135645;27;20774;-58
2024/04/04 11:43:35;;;;;;;0.40;0.20;;;15.70;99.90;;;;;;5136706;27;21019;-60
2024/04/04 11:46:04;;;;;;;0.60;0.20;;;15.50;99.90;;;;;;5137075;27;20474;-59
2024/04/04 11:48:30;;;;;;;0.40;0.20;;;15.40;99.90;;;;;;5135266;27;20435;-59
2024/04/04 11:50:59;;;;;;;0.60;0.10;;;15.20;99.90;;;;;;5137459;27;20508;-59
2024/04/04 11:53:25;;;;;;;0.40;0.20;;;15.10;99.90;;;;;;5136726;27;20436;-58
2024/04/04 11:55:56;;;;;;;0.40;0.20;;;15.10;99.90;;;;;;5136995;27;20440;-59
2024/04/04 11:58:26;;;;;;;1.13;0.20;;;15.10;99.90;;;;;;5136013;27;20538;-60
2024/04/04 12:00:53;;;;;;;3.30;0.20;;;15.30;99.90;;;;;;5136193;27;20503;-59
2024/04/04 12:03:19;;;;;;;0.30;0.10;;;15.50;99.90;;;;;;5136146;27;20436;-60
2024/04/04 12:05:46;;;;;;;1.50;0.30;;;15.70;99.90;;;;;;5135971;27;20475;-60
2024/04/04 12:08:12;;;;;;;0.40;0.20;;;16.00;99.90;;;;;;5137204;27;20447;-58
2024/04/04 12:10:43;;;;;;;0.50;0.20;;;16.20;99.90;;;;;;5136950;27;20546;-61
2024/04/04 12:13:13;;;;;;;0.37;0.17;;;16.20;99.90;;;;;;5118001;28;20444;-61
2024/04/04 12:15:40;;;;;;;0.50;0.20;;;16.30;99.90;;;;;;5126338;27;20724;-61
2024/04/04 12:20:54;;;;;;;0.57;0.20;;;16.60;99.90;;;;;;5125785;27;20415;-62
2024/04/04 12:23:21;;;;;;;0.30;0.10;;;16.80;99.90;;;;;;5121270;27;20838;-62
2024/04/04 12:25:49;;;;;;;0.40;0.20;;;16.50;99.90;;;;;;5119653;27;20472;-65
2024/04/04 12:28:18;;;;;;;0.30;0.10;;;16.50;99.90;;;;;;5125489;27;20440;-63
2024/04/04 12:30:46;;;;;;;0.40;0.10;;;16.30;99.90;;;;;;5126575;27;20788;-63
2024/04/04 12:33:12;;;;;;;0.87;0.30;;;16.30;99.90;;;;;;5113805;27;21027;-63
2024/04/04 12:35:42;;;;;;;0.40;0.13;;;16.50;99.90;;;;;;5117221;27;20456;-63
2024/04/04 12:38:09;;;;;;;0.60;0.20;;;16.20;99.90;;;;;;5126847;27;20448;-62
2024/04/04 12:40:37;;;;;;;0.40;0.20;;;16.30;99.90;;;;;;5126130;27;20448;-60
2024/04/04 12:43:04;;;;;;;0.40;0.20;;;16.30;99.90;;;;;;5126097;27;20455;-61
2024/04/04 12:45:33;;;;;;;1.60;0.20;;;16.10;99.90;;;;;;5132305;27;20511;-64
2024/04/04 12:47:59;;;;;;;0.30;0.10;;;16.10;99.90;;;;;;5127395;27;20459;-64
2024/04/04 12:50:26;;;;;;;1.70;0.17;;;16.20;99.90;;;;;;5117308;27;20539;-61
2024/04/04 12:52:53;;;;;;;0.80;0.20;;;16.30;99.90;;;;;;5119739;27;20459;-58